createdAt,value
2023-05-10T00:00:34.434Z,926.00
2023-05-10T00:01:34.403Z,923.00
2023-05-10T00:02:34.391Z,924.00
2023-05-10T00:03:34.346Z,922.00
2023-05-10T00:04:34.221Z,918.00
2023-05-10T00:05:34.186Z,923.00
2023-05-10T00:06:34.126Z,919.00
2023-05-10T00:07:34.070Z,916.00
2023-05-10T00:08:34.027Z,916.00
2023-05-10T00:09:33.976Z,920.00
2023-05-10T00:10:33.930Z,920.00
2023-05-10T00:11:33.875Z,911.00
2023-05-10T00:12:33.814Z,916.00
2023-05-10T00:13:33.770Z,914.00
2023-05-10T00:14:33.701Z,914.00
2023-05-10T00:15:33.650Z,916.00
2023-05-10T00:16:33.685Z,915.00
2023-05-10T00:17:33.582Z,911.00
2023-05-10T00:18:33.504Z,909.00
2023-05-10T00:19:33.461Z,915.00
2023-05-10T00:20:33.401Z,913.00
2023-05-10T00:21:33.357Z,911.00
2023-05-10T00:22:33.318Z,917.00
2023-05-10T00:23:33.271Z,915.00
2023-05-10T00:24:33.208Z,913.00
2023-05-10T00:25:33.163Z,907.00
2023-05-10T00:26:33.116Z,909.00
2023-05-10T00:27:33.059Z,912.00
2023-05-10T00:28:33.033Z,916.00
2023-05-10T00:29:32.969Z,908.00
2023-05-10T00:30:32.923Z,908.00
2023-05-10T00:31:32.893Z,905.00
2023-05-10T00:32:32.914Z,903.00
2023-05-10T00:33:32.767Z,909.00
2023-05-10T00:34:32.720Z,906.00
2023-05-10T00:35:32.665Z,902.00
2023-05-10T00:36:32.623Z,901.00
2023-05-10T00:37:32.572Z,903.00
2023-05-10T00:38:32.518Z,902.00
2023-05-10T00:39:32.477Z,903.00
2023-05-10T00:40:32.429Z,900.00
2023-05-10T00:41:32.380Z,902.00
2023-05-10T00:42:32.335Z,899.00
2023-05-10T00:43:32.283Z,900.00
2023-05-10T00:44:32.256Z,898.00
2023-05-10T00:45:32.199Z,902.00
2023-05-10T00:46:32.169Z,895.00
2023-05-10T00:47:32.117Z,907.00
2023-05-10T00:48:32.068Z,902.00
2023-05-10T00:49:32.018Z,891.00
2023-05-10T00:50:31.979Z,906.00
2023-05-10T00:51:31.911Z,901.00
2023-05-10T00:52:31.863Z,894.00
2023-05-10T00:53:31.809Z,889.00
2023-05-10T00:54:31.747Z,891.00
2023-05-10T00:55:31.700Z,894.00
2023-05-10T00:56:31.659Z,897.00
2023-05-10T00:57:31.607Z,889.00
2023-05-10T00:58:31.558Z,890.00
2023-05-10T00:59:31.499Z,897.00
2023-05-10T01:00:31.471Z,892.00
2023-05-10T01:01:31.529Z,891.00
2023-05-10T01:02:31.404Z,889.00
2023-05-10T01:03:31.348Z,885.00
2023-05-10T01:04:31.270Z,888.00
2023-05-10T01:05:31.218Z,887.00
2023-05-10T01:06:31.174Z,885.00
2023-05-10T01:07:31.119Z,890.00
2023-05-10T01:08:31.176Z,889.00
2023-05-10T01:09:31.029Z,887.00
2023-05-10T01:10:30.977Z,885.00
2023-05-10T01:11:30.936Z,881.00
2023-05-10T01:12:30.924Z,874.00
2023-05-10T01:13:31.000Z,888.00
2023-05-10T01:14:30.773Z,882.00
2023-05-10T01:15:30.727Z,878.00
2023-05-10T01:16:30.771Z,880.00
2023-05-10T01:17:30.668Z,883.00
2023-05-10T01:18:30.588Z,883.00
2023-05-10T01:19:30.529Z,879.00
2023-05-10T01:20:30.471Z,877.00
2023-05-10T01:21:30.417Z,877.00
2023-05-10T01:22:30.375Z,869.00
2023-05-10T01:23:30.334Z,876.00
2023-05-10T01:24:30.288Z,876.00
2023-05-10T01:25:30.238Z,881.00
2023-05-10T01:26:30.201Z,877.00
2023-05-10T01:27:30.174Z,879.00
2023-05-10T01:28:30.127Z,879.00
2023-05-10T01:29:30.072Z,880.00
2023-05-10T01:30:30.031Z,875.00
2023-05-10T01:31:30.100Z,868.00
2023-05-10T01:32:29.969Z,877.00
2023-05-10T01:33:29.902Z,874.00
2023-05-10T01:34:29.851Z,873.00
2023-05-10T01:35:29.830Z,865.00
2023-05-10T01:36:29.756Z,871.00
2023-05-10T01:37:29.702Z,865.00
2023-05-10T01:38:29.681Z,867.00
2023-05-10T01:39:29.606Z,865.00
2023-05-10T01:40:29.548Z,868.00
2023-05-10T01:41:29.501Z,864.00
2023-05-10T01:42:29.435Z,870.00
2023-05-10T01:43:29.394Z,873.00
2023-05-10T01:44:29.349Z,867.00
2023-05-10T01:45:29.286Z,855.00
2023-05-10T01:46:29.262Z,863.00
2023-05-10T01:47:29.254Z,873.00
2023-05-10T01:48:29.127Z,869.00
2023-05-10T01:49:29.071Z,867.00
2023-05-10T01:50:29.045Z,860.00
2023-05-10T01:51:28.969Z,863.00
2023-05-10T01:52:28.929Z,859.00
2023-05-10T01:53:28.877Z,860.00
2023-05-10T01:54:28.823Z,857.00
2023-05-10T01:55:28.765Z,858.00
2023-05-10T01:56:28.710Z,856.00
2023-05-10T01:57:28.668Z,857.00
2023-05-10T01:58:28.607Z,857.00
2023-05-10T01:59:28.561Z,851.00
2023-05-10T02:00:28.554Z,855.00
2023-05-10T02:01:28.456Z,857.00
2023-05-10T02:02:28.428Z,858.00
2023-05-10T02:03:28.443Z,850.00
2023-05-10T02:04:28.365Z,856.00
2023-05-10T02:05:28.278Z,852.00
2023-05-10T02:06:28.217Z,856.00
2023-05-10T02:07:28.167Z,851.00
2023-05-10T02:08:28.144Z,854.00
2023-05-10T02:09:28.124Z,850.00
2023-05-10T02:10:28.039Z,846.00
2023-05-10T02:11:27.986Z,842.00
2023-05-10T02:12:27.945Z,847.00
2023-05-10T02:13:27.978Z,852.00
2023-05-10T02:14:27.873Z,846.00
2023-05-10T02:15:27.860Z,845.00
2023-05-10T02:16:27.797Z,847.00
2023-05-10T02:17:27.768Z,847.00
2023-05-10T02:18:27.697Z,847.00
2023-05-10T02:19:27.648Z,840.00
2023-05-10T02:20:27.593Z,843.00
2023-05-10T02:21:27.551Z,839.00
2023-05-10T02:22:27.503Z,848.00
2023-05-10T02:23:27.469Z,847.00
2023-05-10T02:24:27.427Z,845.00
2023-05-10T02:25:27.380Z,847.00
2023-05-10T02:26:27.336Z,840.00
2023-05-10T02:27:27.290Z,843.00
2023-05-10T02:28:27.259Z,842.00
2023-05-10T02:29:27.211Z,844.00
2023-05-10T02:30:27.163Z,841.00
2023-05-10T02:31:27.162Z,832.00
2023-05-10T02:32:27.094Z,839.00
2023-05-10T02:33:27.041Z,835.00
2023-05-10T02:34:27.005Z,837.00
2023-05-10T02:35:26.954Z,832.00
2023-05-10T02:36:26.907Z,836.00
2023-05-10T02:37:26.866Z,838.00
2023-05-10T02:38:26.834Z,833.00
2023-05-10T02:39:26.797Z,836.00
2023-05-10T02:40:28.663Z,841.00
2023-05-10T02:41:26.696Z,832.00
2023-05-10T02:42:26.649Z,836.00
2023-05-10T02:43:26.611Z,830.00
2023-05-10T02:44:26.577Z,831.00
2023-05-10T02:45:26.526Z,831.00
2023-05-10T02:46:26.524Z,826.00
2023-05-10T02:47:26.443Z,828.00
2023-05-10T02:48:26.399Z,830.00
2023-05-10T02:49:26.373Z,825.00
2023-05-10T02:50:26.331Z,826.00
2023-05-10T02:51:26.284Z,823.00
2023-05-10T02:52:26.243Z,823.00
2023-05-10T02:53:26.211Z,828.00
2023-05-10T02:54:26.176Z,816.00
2023-05-10T02:55:26.129Z,819.00
2023-05-10T02:56:26.081Z,827.00
2023-05-10T02:57:26.047Z,827.00
2023-05-10T02:58:25.998Z,826.00
2023-05-10T02:59:26.337Z,822.00
2023-05-10T03:00:25.930Z,822.00
2023-05-10T03:01:25.911Z,817.00
2023-05-10T03:02:25.836Z,825.00
2023-05-10T03:03:25.777Z,814.00
2023-05-10T03:04:25.761Z,817.00
2023-05-10T03:05:25.716Z,822.00
2023-05-10T03:06:25.649Z,819.00
2023-05-10T03:07:25.596Z,810.00
2023-05-10T03:08:25.546Z,818.00
2023-05-10T03:09:25.506Z,816.00
2023-05-10T03:10:25.472Z,809.00
2023-05-10T03:11:25.425Z,812.00
2023-05-10T03:12:25.384Z,811.00
2023-05-10T03:13:25.370Z,808.00
2023-05-10T03:14:25.307Z,809.00
2023-05-10T03:15:25.276Z,804.00
2023-05-10T03:16:25.280Z,808.00
2023-05-10T03:17:25.211Z,805.00
2023-05-10T03:18:25.137Z,808.00
2023-05-10T03:19:25.111Z,806.00
2023-05-10T03:20:25.068Z,806.00
2023-05-10T03:21:25.021Z,803.00
2023-05-10T03:22:24.985Z,814.00
2023-05-10T03:23:24.940Z,807.00
2023-05-10T03:24:24.902Z,807.00
2023-05-10T03:25:24.867Z,807.00
2023-05-10T03:26:24.820Z,802.00
2023-05-10T03:27:24.770Z,803.00
2023-05-10T03:28:24.736Z,798.00
2023-05-10T03:29:24.689Z,805.00
2023-05-10T03:30:24.657Z,802.00
2023-05-10T03:31:24.648Z,795.00
2023-05-10T03:32:24.679Z,800.00
2023-05-10T03:33:24.541Z,809.00
2023-05-10T03:34:24.543Z,797.00
2023-05-10T03:35:24.446Z,799.00
2023-05-10T03:36:24.385Z,798.00
2023-05-10T03:37:24.357Z,802.00
2023-05-10T03:38:24.308Z,796.00
2023-05-10T03:39:24.261Z,804.00
2023-05-10T03:40:24.228Z,800.00
2023-05-10T03:41:24.178Z,794.00
2023-05-10T03:42:24.128Z,797.00
2023-05-10T03:43:24.088Z,798.00
2023-05-10T03:44:24.057Z,794.00
2023-05-10T03:45:24.015Z,801.00
2023-05-10T03:46:24.040Z,795.00
2023-05-10T03:47:23.927Z,800.00
2023-05-10T03:48:23.891Z,793.00
2023-05-10T03:49:23.862Z,793.00
2023-05-10T03:50:23.816Z,796.00
2023-05-10T03:51:23.803Z,791.00
2023-05-10T03:52:23.752Z,790.00
2023-05-10T03:53:23.707Z,794.00
2023-05-10T03:54:23.668Z,792.00
2023-05-10T03:55:23.633Z,792.00
2023-05-10T03:56:23.596Z,800.00
2023-05-10T03:57:23.554Z,793.00
2023-05-10T03:58:23.520Z,790.00
2023-05-10T03:59:23.481Z,787.00
2023-05-10T04:00:23.436Z,795.00
2023-05-10T04:01:23.403Z,791.00
2023-05-10T04:02:23.428Z,793.00
2023-05-10T04:03:23.387Z,787.00
2023-05-10T04:04:23.288Z,789.00
2023-05-10T04:05:23.244Z,795.00
2023-05-10T04:06:23.253Z,792.00
2023-05-10T04:07:23.158Z,784.00
2023-05-10T04:08:23.116Z,784.00
2023-05-10T04:09:23.099Z,788.00
2023-05-10T04:10:23.042Z,788.00
2023-05-10T04:11:23.043Z,785.00
2023-05-10T04:12:22.982Z,786.00
2023-05-10T04:13:23.098Z,793.00
2023-05-10T04:14:22.908Z,786.00
2023-05-10T04:15:22.864Z,788.00
2023-05-10T04:16:22.884Z,784.00
2023-05-10T04:17:22.824Z,784.00
2023-05-10T04:18:22.761Z,783.00
2023-05-10T04:19:22.732Z,783.00
2023-05-10T04:20:22.688Z,784.00
2023-05-10T04:21:22.656Z,781.00
2023-05-10T04:22:22.619Z,783.00
2023-05-10T04:23:22.580Z,780.00
2023-05-10T04:24:22.538Z,789.00
2023-05-10T04:25:22.502Z,781.00
2023-05-10T04:26:22.464Z,781.00
2023-05-10T04:27:22.429Z,779.00
2023-05-10T04:28:22.392Z,781.00
2023-05-10T04:29:22.355Z,786.00
2023-05-10T04:30:22.317Z,788.00
2023-05-10T04:31:22.362Z,781.00
2023-05-10T04:32:22.294Z,789.00
2023-05-10T04:33:22.224Z,782.00
2023-05-10T04:34:22.170Z,779.00
2023-05-10T04:35:22.133Z,784.00
2023-05-10T04:36:22.096Z,792.00
2023-05-10T04:37:22.061Z,786.00
2023-05-10T04:38:22.019Z,787.00
2023-05-10T04:39:21.976Z,789.00
2023-05-10T04:40:21.929Z,776.00
2023-05-10T04:41:21.886Z,783.00
2023-05-10T04:42:21.841Z,783.00
2023-05-10T04:43:21.812Z,781.00
2023-05-10T04:44:21.773Z,772.00
2023-05-10T04:45:21.736Z,781.00
2023-05-10T04:46:21.701Z,786.00
2023-05-10T04:47:21.699Z,774.00
2023-05-10T04:48:21.627Z,776.00
2023-05-10T04:49:21.654Z,774.00
2023-05-10T04:50:21.557Z,773.00
2023-05-10T04:51:21.518Z,773.00
2023-05-10T04:52:21.477Z,772.00
2023-05-10T04:53:21.431Z,775.00
2023-05-10T04:54:21.390Z,776.00
2023-05-10T04:55:21.370Z,771.00
2023-05-10T04:56:21.329Z,775.00
2023-05-10T04:57:21.300Z,773.00
2023-05-10T04:58:21.276Z,773.00
2023-05-10T04:59:21.228Z,773.00
2023-05-10T05:00:21.191Z,771.00
2023-05-10T05:01:21.152Z,768.00
2023-05-10T05:02:21.133Z,772.00
2023-05-10T05:03:21.214Z,773.00
2023-05-10T05:04:21.023Z,779.00
2023-05-10T05:05:21.000Z,769.00
2023-05-10T05:06:20.964Z,775.00
2023-05-10T05:07:20.926Z,774.00
2023-05-10T05:08:20.889Z,768.00
2023-05-10T05:09:20.897Z,777.00
2023-05-10T05:10:20.816Z,771.00
2023-05-10T05:11:20.786Z,774.00
2023-05-10T05:12:20.732Z,771.00
2023-05-10T05:13:20.722Z,771.00
2023-05-10T05:14:20.650Z,765.00
2023-05-10T05:15:20.622Z,775.00
2023-05-10T05:16:20.600Z,771.00
2023-05-10T05:17:20.539Z,773.00
2023-05-10T05:18:20.506Z,771.00
2023-05-10T05:19:20.461Z,781.00
2023-05-10T05:20:20.413Z,779.00
2023-05-10T05:21:20.375Z,778.00
2023-05-10T05:22:20.364Z,782.00
2023-05-10T05:23:20.305Z,782.00
2023-05-10T05:24:20.265Z,782.00
2023-05-10T05:25:20.226Z,785.00
2023-05-10T05:26:20.189Z,804.00
2023-05-10T05:27:20.145Z,833.00
2023-05-10T05:28:20.117Z,870.00
2023-05-10T05:29:20.057Z,899.00
2023-05-10T05:30:20.041Z,921.00
2023-05-10T05:31:20.036Z,957.00
2023-05-10T05:32:19.923Z,1010.00
2023-05-10T05:33:19.956Z,1024.00
2023-05-10T05:34:19.890Z,1037.00
2023-05-10T05:35:19.833Z,1052.00
2023-05-10T05:36:19.781Z,1073.00
2023-05-10T05:37:19.735Z,1078.00
2023-05-10T05:38:19.717Z,1091.00
2023-05-10T05:39:19.670Z,1103.00
2023-05-10T05:40:20.404Z,1120.00
2023-05-10T05:41:19.589Z,1143.00
2023-05-10T05:42:19.566Z,1155.00
2023-05-10T05:43:19.525Z,1179.00
2023-05-10T05:44:19.470Z,1193.00
2023-05-10T05:45:19.688Z,1208.00
2023-05-10T05:46:19.453Z,1230.00
2023-05-10T05:47:19.360Z,1223.00
2023-05-10T05:48:19.315Z,1232.00
2023-05-10T05:49:19.279Z,1232.00
2023-05-10T05:50:19.238Z,1225.00
2023-05-10T05:51:19.203Z,1210.00
2023-05-10T05:52:19.182Z,1228.00
2023-05-10T05:53:19.152Z,1231.00
2023-05-10T05:54:19.087Z,1227.00
2023-05-10T05:55:19.172Z,1234.00
2023-05-10T05:56:19.075Z,1247.00
2023-05-10T05:57:18.956Z,1244.00
2023-05-10T05:58:18.920Z,1247.00
2023-05-10T05:59:18.886Z,1246.00
2023-05-10T06:00:18.846Z,1236.00
2023-05-10T06:01:18.811Z,1238.00
2023-05-10T06:02:18.780Z,1251.00
2023-05-10T06:03:18.903Z,1252.00
2023-05-10T06:04:18.732Z,1244.00
2023-05-10T06:05:18.778Z,1249.00
2023-05-10T06:06:18.647Z,1264.00
2023-05-10T06:07:18.579Z,1264.00
2023-05-10T06:08:18.534Z,1262.00
2023-05-10T06:09:18.525Z,1250.00
2023-05-10T06:10:18.440Z,1251.00
2023-05-10T06:11:18.400Z,1251.00
2023-05-10T06:12:18.364Z,1254.00
2023-05-10T06:13:18.419Z,1255.00
2023-05-10T06:14:18.328Z,1254.00
2023-05-10T06:15:18.377Z,1257.00
2023-05-10T06:16:18.198Z,1265.00
2023-05-10T06:17:18.133Z,1261.00
2023-05-10T06:18:18.080Z,1264.00
2023-05-10T06:19:18.021Z,1263.00
2023-05-10T06:20:17.967Z,1294.00
2023-05-10T06:21:17.922Z,1313.00
2023-05-10T06:22:17.873Z,1316.00
2023-05-10T06:23:17.831Z,1326.00
2023-05-10T06:24:18.375Z,1343.00
2023-05-10T06:25:17.951Z,1397.00
2023-05-10T06:26:17.710Z,1474.00
2023-05-10T06:27:17.651Z,1512.00
2023-05-10T06:28:17.608Z,1569.00
2023-05-10T06:29:17.567Z,1634.00
2023-05-10T06:30:17.515Z,1692.00
2023-05-10T06:31:17.439Z,1746.00
2023-05-10T06:32:17.356Z,1785.00
2023-05-10T06:33:17.285Z,1836.00
2023-05-10T06:34:17.219Z,1881.00
2023-05-10T06:35:17.499Z,1931.00
2023-05-10T06:36:17.039Z,1974.00
2023-05-10T06:37:16.975Z,1979.00
2023-05-10T06:38:16.886Z,1999.00
2023-05-10T06:39:16.845Z,2027.00
2023-05-10T06:40:16.741Z,2049.00
2023-05-10T06:41:16.645Z,2084.00
2023-05-10T06:42:16.563Z,2117.00
2023-05-10T06:43:16.477Z,2148.00
2023-05-10T06:44:16.392Z,2164.00
2023-05-10T06:45:16.594Z,2185.00
2023-05-10T06:46:16.214Z,2207.00
2023-05-10T06:47:16.103Z,2241.00
2023-05-10T06:48:16.053Z,2254.00
2023-05-10T06:49:15.916Z,2274.00
2023-05-10T06:50:15.821Z,2280.00
2023-05-10T06:51:15.728Z,2299.00
2023-05-10T06:52:15.634Z,2316.00
2023-05-10T06:53:15.530Z,2326.00
2023-05-10T06:54:15.433Z,2338.00
2023-05-10T06:55:15.450Z,2362.00
2023-05-10T06:56:15.236Z,2380.00
2023-05-10T06:57:27.648Z,2404.00
2023-05-10T06:58:16.021Z,2406.00
2023-05-10T06:59:14.933Z,2410.00
2023-05-10T07:00:14.966Z,2423.00
2023-05-10T07:01:14.814Z,2443.00
2023-05-10T07:02:14.641Z,2476.00
2023-05-10T07:03:14.467Z,2501.00
2023-05-10T07:04:14.545Z,2491.00
2023-05-10T07:05:14.293Z,2515.00
2023-05-10T07:06:25.447Z,2543.00
2023-05-10T07:07:14.996Z,2544.00
2023-05-10T07:08:13.875Z,2545.00
2023-05-10T07:09:13.762Z,2554.00
2023-05-10T07:10:13.700Z,2574.00
2023-05-10T07:11:13.532Z,2599.00
2023-05-10T07:12:15.241Z,2610.00
2023-05-10T07:13:13.348Z,2627.00
2023-05-10T07:14:13.189Z,2658.00
2023-05-10T07:15:13.056Z,2655.00
2023-05-10T07:16:12.942Z,2671.00
2023-05-10T07:17:12.843Z,2683.00
2023-05-10T07:18:12.734Z,2708.00
2023-05-10T07:19:12.612Z,2714.00
2023-05-10T07:20:12.484Z,2709.00
2023-05-10T07:21:12.407Z,2688.00
2023-05-10T07:22:12.405Z,2699.00
2023-05-10T07:23:12.201Z,2686.00
2023-05-10T07:24:12.078Z,2693.00
2023-05-10T07:25:11.984Z,2690.00
2023-05-10T07:26:11.886Z,2687.00
2023-05-10T07:27:11.760Z,2697.00
2023-05-10T07:28:11.648Z,2698.00
2023-05-10T07:29:11.540Z,2701.00
2023-05-10T07:30:11.423Z,2680.00
2023-05-10T07:31:11.321Z,2691.00
2023-05-10T07:32:11.266Z,2675.00
2023-05-10T07:33:11.187Z,2661.00
2023-05-10T07:34:11.043Z,2667.00
2023-05-10T07:35:10.929Z,2660.00
2023-05-10T07:36:10.822Z,2658.00
2023-05-10T07:37:10.734Z,2633.00
2023-05-10T07:38:10.635Z,2629.00
2023-05-10T07:39:11.504Z,2629.00
2023-05-10T07:40:10.502Z,2622.00
2023-05-10T07:41:10.353Z,2625.00
2023-05-10T07:42:10.269Z,2610.00
2023-05-10T07:43:10.174Z,2615.00
2023-05-10T07:44:10.082Z,2603.00
2023-05-10T07:45:09.996Z,2586.00
2023-05-10T07:46:10.002Z,2589.00
2023-05-10T07:47:09.817Z,2590.00
2023-05-10T07:48:09.819Z,2583.00
2023-05-10T07:49:09.642Z,2561.00
2023-05-10T07:50:09.600Z,2554.00
2023-05-10T07:51:09.497Z,2548.00
2023-05-10T07:52:09.379Z,2540.00
2023-05-10T07:53:09.296Z,2535.00
2023-05-10T07:54:09.200Z,2524.00
2023-05-10T07:55:09.106Z,2522.00
2023-05-10T07:56:09.010Z,2520.00
2023-05-10T07:57:08.921Z,2518.00
2023-05-10T07:58:08.848Z,2501.00
2023-05-10T07:59:10.713Z,2510.00
2023-05-10T08:00:08.655Z,2510.00
2023-05-10T08:01:08.525Z,2494.00
2023-05-10T08:02:08.453Z,2478.00
2023-05-10T08:03:08.499Z,2488.00
2023-05-10T08:04:08.299Z,2495.00
2023-05-10T08:05:08.081Z,2478.00
2023-05-10T08:06:07.961Z,2462.00
2023-05-10T08:07:07.836Z,2465.00
2023-05-10T08:08:07.725Z,2472.00
2023-05-10T08:09:07.608Z,2464.00
2023-05-10T08:10:07.481Z,2463.00
2023-05-10T08:11:07.380Z,2466.00
2023-05-10T08:12:07.285Z,2462.00
2023-05-10T08:13:07.165Z,2251.00
2023-05-10T08:14:07.055Z,1779.00
2023-05-10T08:15:06.958Z,1391.00
2023-05-10T08:16:06.846Z,991.00
2023-05-10T08:17:06.741Z,688.00
2023-05-10T08:18:06.679Z,567.00
2023-05-10T08:19:06.568Z,497.00
2023-05-10T08:20:06.653Z,435.00
2023-05-10T08:21:06.319Z,400.00
2023-05-10T08:22:06.229Z,400.00
2023-05-10T08:23:06.141Z,400.00
2023-05-10T08:24:06.057Z,400.00
2023-05-10T08:25:05.940Z,400.00
2023-05-10T08:26:05.858Z,400.00
2023-05-10T08:27:05.753Z,434.00
2023-05-10T08:28:05.656Z,491.00
2023-05-10T08:29:05.575Z,522.00
2023-05-10T08:30:05.467Z,548.00
2023-05-10T08:31:05.398Z,581.00
2023-05-10T08:32:05.284Z,632.00
2023-05-10T08:33:05.214Z,674.00
2023-05-10T08:34:05.058Z,790.00
2023-05-10T08:35:04.948Z,883.00
2023-05-10T08:36:04.902Z,995.00
2023-05-10T08:37:04.729Z,1097.00
2023-05-10T08:38:04.636Z,1180.00
2023-05-10T08:39:04.512Z,1249.00
2023-05-10T08:40:04.389Z,1318.00
2023-05-10T08:41:04.286Z,1401.00
2023-05-10T08:42:04.169Z,1459.00
2023-05-10T08:43:04.073Z,1511.00
2023-05-10T08:44:03.948Z,1564.00
2023-05-10T08:45:03.837Z,1612.00
2023-05-10T08:46:03.772Z,1667.00
2023-05-10T08:47:03.666Z,1716.00
2023-05-10T08:48:03.613Z,1770.00
2023-05-10T08:49:03.399Z,1810.00
2023-05-10T08:50:03.278Z,1869.00
2023-05-10T08:51:03.165Z,1910.00
2023-05-10T08:52:03.096Z,1959.00
2023-05-10T08:53:02.967Z,2014.00
2023-05-10T08:54:02.831Z,2051.00
2023-05-10T08:55:02.717Z,2083.00
2023-05-10T08:56:02.599Z,2121.00
2023-05-10T08:57:02.500Z,2159.00
2023-05-10T08:58:02.375Z,2217.00
2023-05-10T08:59:02.275Z,2234.00
2023-05-10T09:00:02.177Z,2286.00
2023-05-10T09:01:02.196Z,2311.00
2023-05-10T09:02:01.921Z,2341.00
2023-05-10T09:03:01.837Z,2408.00
2023-05-10T09:04:01.807Z,2426.00
2023-05-10T09:05:01.721Z,2451.00
2023-05-10T09:06:01.622Z,2486.00
2023-05-10T09:07:01.566Z,2518.00
2023-05-10T09:08:01.532Z,2564.00
2023-05-10T09:09:01.481Z,2590.00
2023-05-10T09:10:01.426Z,2618.00
2023-05-10T09:11:01.374Z,2648.00
2023-05-10T09:12:01.325Z,2693.00
2023-05-10T09:13:01.273Z,2703.00
2023-05-10T09:14:01.236Z,2742.00
2023-05-10T09:15:01.221Z,2756.00
2023-05-10T09:16:09.870Z,2768.00
2023-05-10T09:17:02.118Z,2770.00
2023-05-10T09:18:00.920Z,2770.00
2023-05-10T09:19:00.831Z,2693.00
2023-05-10T09:20:00.657Z,2426.00
2023-05-10T09:21:00.553Z,2192.00
2023-05-10T09:22:00.433Z,2145.00
2023-05-10T09:23:00.326Z,2132.00
2023-05-10T09:24:00.216Z,2207.00
2023-05-10T09:25:00.142Z,2295.00
2023-05-10T09:26:00.002Z,2337.00
2023-05-10T09:26:59.887Z,2409.00
2023-05-10T09:27:59.761Z,2418.00
2023-05-10T09:28:59.654Z,2440.00
2023-05-10T09:29:59.574Z,2498.00
2023-05-10T09:30:59.536Z,2559.00
2023-05-10T09:31:59.460Z,2583.00
2023-05-10T09:32:59.496Z,2607.00
2023-05-10T09:33:59.381Z,2629.00
2023-05-10T09:34:59.323Z,2680.00
2023-05-10T09:35:59.263Z,2702.00
2023-05-10T09:36:59.194Z,2733.00
2023-05-10T09:37:59.168Z,2745.00
2023-05-10T09:38:59.095Z,2787.00
2023-05-10T09:39:59.047Z,2814.00
2023-05-10T09:40:58.965Z,2845.00
2023-05-10T09:41:58.931Z,2862.00
2023-05-10T09:42:58.828Z,2908.00
2023-05-10T09:43:58.758Z,2926.00
2023-05-10T09:44:58.672Z,2948.00
2023-05-10T09:45:58.638Z,2978.00
2023-05-10T09:46:58.540Z,3017.00
2023-05-10T09:47:58.525Z,3024.00
2023-05-10T09:48:58.411Z,3069.00
2023-05-10T09:49:58.333Z,3079.00
2023-05-10T09:50:58.273Z,3110.00
2023-05-10T09:51:58.178Z,3141.00
2023-05-10T09:52:58.107Z,3147.00
2023-05-10T09:53:58.036Z,3181.00
2023-05-10T09:54:57.947Z,3199.00
2023-05-10T09:55:57.867Z,3233.00
2023-05-10T09:56:57.774Z,3267.00
2023-05-10T09:57:57.696Z,3288.00
2023-05-10T09:58:57.613Z,3311.00
2023-05-10T09:59:57.680Z,3347.00
2023-05-10T10:00:57.449Z,3351.00
2023-05-10T10:01:57.407Z,3395.00
2023-05-10T10:02:57.338Z,3403.00
2023-05-10T10:03:57.164Z,3437.00
2023-05-10T10:04:57.125Z,3457.00
2023-05-10T10:05:57.005Z,3458.00
2023-05-10T10:06:56.889Z,3472.00
2023-05-10T10:07:56.797Z,3503.00
2023-05-10T10:08:56.854Z,3523.00
2023-05-10T10:09:57.519Z,3539.00
2023-05-10T10:10:56.528Z,3538.00
2023-05-10T10:11:56.423Z,3545.00
2023-05-10T10:12:56.328Z,3533.00
2023-05-10T10:13:56.237Z,3520.00
2023-05-10T10:14:56.143Z,3514.00
2023-05-10T10:15:56.081Z,3483.00
2023-05-10T10:17:07.234Z,3476.00
2023-05-10T10:17:56.877Z,3478.00
2023-05-10T10:18:55.755Z,3478.00
2023-05-10T10:19:55.589Z,3468.00
2023-05-10T10:20:55.473Z,3445.00
2023-05-10T10:21:55.351Z,3452.00
2023-05-10T10:22:55.272Z,3446.00
2023-05-10T10:23:55.113Z,3444.00
2023-05-10T10:24:55.027Z,3431.00
2023-05-10T10:25:54.863Z,3429.00
2023-05-10T10:26:54.760Z,3422.00
2023-05-10T10:27:54.712Z,3422.00
2023-05-10T10:28:54.597Z,3410.00
2023-05-10T10:29:54.552Z,3405.00
2023-05-10T10:30:54.501Z,3399.00
2023-05-10T10:31:54.607Z,3413.00
2023-05-10T10:32:54.441Z,3391.00
2023-05-10T10:33:54.332Z,3390.00
2023-05-10T10:34:54.347Z,3377.00
2023-05-10T10:35:54.256Z,3375.00
2023-05-10T10:36:54.196Z,3388.00
2023-05-10T10:37:54.162Z,3371.00
2023-05-10T10:38:54.094Z,3350.00
2023-05-10T10:39:54.061Z,3347.00
2023-05-10T10:40:54.005Z,3358.00
2023-05-10T10:41:53.931Z,3348.00
2023-05-10T10:42:53.834Z,3333.00
2023-05-10T10:43:53.755Z,3337.00
2023-05-10T10:44:53.668Z,3331.00
2023-05-10T10:45:53.571Z,3325.00
2023-05-10T10:46:53.515Z,3329.00
2023-05-10T10:47:53.463Z,3321.00
2023-05-10T10:48:53.370Z,3315.00
2023-05-10T10:49:53.274Z,3310.00
2023-05-10T10:50:53.202Z,3324.00
2023-05-10T10:51:53.148Z,3309.00
2023-05-10T10:52:53.121Z,3309.00
2023-05-10T10:53:53.031Z,3297.00
2023-05-10T10:54:52.969Z,3292.00
2023-05-10T10:55:52.903Z,3283.00
2023-05-10T10:56:52.850Z,3295.00
2023-05-10T10:57:52.856Z,3279.00
2023-05-10T10:58:52.711Z,3270.00
2023-05-10T10:59:52.646Z,3272.00
2023-05-10T11:00:52.561Z,3267.00
2023-05-10T11:01:52.456Z,3273.00
2023-05-10T11:02:52.428Z,3247.00
2023-05-10T11:03:52.250Z,3265.00
2023-05-10T11:04:52.124Z,3247.00
2023-05-10T11:05:52.021Z,3038.00
2023-05-10T11:06:51.912Z,3002.00
2023-05-10T11:07:51.805Z,2994.00
2023-05-10T11:08:51.713Z,2894.00
2023-05-10T11:09:51.593Z,2682.00
2023-05-10T11:10:51.494Z,2453.00
2023-05-10T11:11:51.381Z,2172.00
2023-05-10T11:12:51.281Z,1990.00
2023-05-10T11:13:51.799Z,1890.00
2023-05-10T11:14:51.105Z,1744.00
2023-05-10T11:15:51.045Z,1501.00
2023-05-10T11:16:51.029Z,1405.00
2023-05-10T11:17:50.887Z,1371.00
2023-05-10T11:18:50.819Z,1305.00
2023-05-10T11:19:50.729Z,1345.00
2023-05-10T11:20:50.665Z,1355.00
2023-05-10T11:21:50.591Z,1342.00
2023-05-10T11:22:50.507Z,1241.00
2023-05-10T11:23:50.453Z,1099.00
2023-05-10T11:24:50.365Z,1099.00
2023-05-10T11:25:50.275Z,1063.00
2023-05-10T11:26:50.212Z,997.00
2023-05-10T11:27:50.134Z,918.00
2023-05-10T11:28:50.097Z,831.00
2023-05-10T11:29:49.998Z,749.00
2023-05-10T11:30:49.968Z,646.00
2023-05-10T11:31:49.882Z,584.00
2023-05-10T11:32:49.870Z,514.00
2023-05-10T11:33:49.796Z,499.00
2023-05-10T11:34:49.740Z,500.00
2023-05-10T11:35:49.722Z,506.00
2023-05-10T11:36:49.657Z,497.00
2023-05-10T11:37:49.556Z,499.00
2023-05-10T11:38:49.457Z,500.00
2023-05-10T11:39:49.345Z,507.00
2023-05-10T11:40:49.265Z,525.00
2023-05-10T11:41:49.159Z,533.00
2023-05-10T11:42:49.050Z,521.00
2023-05-10T11:43:48.995Z,500.00
2023-05-10T11:44:48.897Z,502.00
2023-05-10T11:45:48.873Z,503.00
2023-05-10T11:46:48.845Z,502.00
2023-05-10T11:47:48.674Z,501.00
2023-05-10T11:48:48.567Z,512.00
2023-05-10T11:49:48.465Z,506.00
2023-05-10T11:50:48.384Z,518.00
2023-05-10T11:51:48.281Z,512.00
2023-05-10T11:52:48.298Z,508.00
2023-05-10T11:53:48.192Z,519.00
2023-05-10T11:54:48.100Z,527.00
2023-05-10T11:55:48.063Z,509.00
2023-05-10T11:56:47.920Z,509.00
2023-05-10T11:57:47.820Z,514.00
2023-05-10T11:58:47.803Z,529.00
2023-05-10T11:59:47.813Z,531.00
2023-05-10T12:00:47.804Z,526.00
2023-05-10T12:01:47.789Z,581.00
2023-05-10T12:02:47.895Z,719.00
2023-05-10T12:03:47.803Z,914.00
2023-05-10T12:04:47.717Z,1045.00
2023-05-10T12:05:47.615Z,1164.00
2023-05-10T12:06:47.573Z,1257.00
2023-05-10T12:07:47.508Z,1348.00
2023-05-10T12:08:47.473Z,1441.00
2023-05-10T12:09:47.413Z,1588.00
2023-05-10T12:10:47.339Z,1671.00
2023-05-10T12:11:47.291Z,1751.00
2023-05-10T12:12:47.198Z,1799.00
2023-05-10T12:13:47.096Z,1899.00
2023-05-10T12:14:47.017Z,1955.00
2023-05-10T12:15:46.924Z,1979.00
2023-05-10T12:16:46.963Z,2013.00